createdAt,value
2023-10-28T00:00:37.194Z,0.18
2023-10-28T00:03:04.277Z,0.14
2023-10-28T00:05:33.165Z,0.12
2023-10-28T00:08:00.368Z,0.12
2023-10-28T00:10:27.327Z,0.12
2023-10-28T00:12:54.239Z,0.11
2023-10-28T00:15:21.545Z,0.12
2023-10-28T00:17:49.184Z,0.11
2023-10-28T00:20:16.874Z,0.11
2023-10-28T00:22:45.189Z,0.10
2023-10-28T00:25:12.690Z,0.09
2023-10-28T00:27:39.740Z,0.09
2023-10-28T00:30:08.220Z,0.10
2023-10-28T00:32:35.364Z,0.10
2023-10-28T00:35:02.556Z,0.05
2023-10-28T00:37:29.422Z,0.07
2023-10-28T00:39:57.792Z,0.09
2023-10-28T00:42:24.753Z,0.08
2023-10-28T00:44:51.840Z,0.07
2023-10-28T00:47:19.108Z,0.04
2023-10-28T00:49:46.477Z,0.02
2023-10-28T00:52:13.664Z,0.05
2023-10-28T00:54:40.724Z,0.02
2023-10-28T00:57:09.852Z,0.01
2023-10-28T00:59:37.070Z,0.01
2023-10-28T01:02:04.261Z,0.00
2023-10-28T01:04:31.314Z,0.05
2023-10-28T01:06:58.293Z,0.07
2023-10-28T01:09:25.429Z,0.05
2023-10-28T01:11:52.466Z,0.12
2023-10-28T01:14:20.998Z,0.17
2023-10-28T01:16:47.996Z,0.09
2023-10-28T01:19:15.110Z,0.10
2023-10-28T01:21:44.121Z,0.10
2023-10-28T01:24:11.142Z,0.10
2023-10-28T01:26:38.199Z,0.10
2023-10-28T01:29:05.456Z,0.05
2023-10-28T01:31:32.629Z,0.07
2023-10-28T01:33:59.622Z,0.07
2023-10-28T01:36:26.764Z,0.15
2023-10-28T01:38:55.252Z,0.08
2023-10-28T01:41:22.322Z,0.08
2023-10-28T01:43:49.558Z,0.04
2023-10-28T01:46:16.732Z,0.04
2023-10-28T01:48:43.734Z,0.02
2023-10-28T01:51:11.296Z,0.01
2023-10-28T01:53:38.420Z,0.01
2023-10-28T01:56:07.233Z,0.00
2023-10-28T01:58:34.258Z,0.00
2023-10-28T02:01:01.378Z,0.00
2023-10-28T02:03:28.490Z,0.00
2023-10-28T02:05:55.640Z,0.05
2023-10-28T02:08:22.623Z,0.07
2023-10-28T02:10:49.613Z,0.04
2023-10-28T02:13:18.201Z,0.02
2023-10-28T02:15:49.022Z,0.01
2023-10-28T02:18:16.040Z,0.01
2023-10-28T02:20:45.966Z,0.00
2023-10-28T02:23:13.127Z,0.00
2023-10-28T02:25:41.422Z,0.04
2023-10-28T02:28:08.371Z,0.02
2023-10-28T02:30:39.553Z,0.01
2023-10-28T02:33:06.840Z,0.01
2023-10-28T02:35:33.874Z,0.00
2023-10-28T02:38:00.994Z,0.00
2023-10-28T02:40:27.921Z,0.00
2023-10-28T02:42:55.070Z,0.00
2023-10-28T02:45:21.978Z,0.00
2023-10-28T02:47:50.325Z,0.00
2023-10-28T02:50:17.423Z,0.00
2023-10-28T02:52:44.425Z,0.00
2023-10-28T02:55:11.346Z,0.00
2023-10-28T02:57:38.289Z,0.00
2023-10-28T03:00:06.071Z,0.00
2023-10-28T03:02:33.202Z,0.00
2023-10-28T03:05:01.655Z,0.00
2023-10-28T03:07:28.584Z,0.00
2023-10-28T03:09:55.471Z,0.00
2023-10-28T03:12:22.321Z,0.00
2023-10-28T03:14:50.036Z,0.00
2023-10-28T03:17:16.981Z,0.00
2023-10-28T03:19:44.158Z,0.00
2023-10-28T03:22:16.712Z,0.00
2023-10-28T03:24:43.733Z,0.00
2023-10-28T03:27:10.615Z,0.00
2023-10-28T03:29:37.647Z,0.09
2023-10-28T03:32:06.633Z,0.05
2023-10-28T03:34:33.602Z,0.03
2023-10-28T03:37:00.480Z,0.01
2023-10-28T03:39:28.851Z,0.01
2023-10-28T03:41:55.682Z,0.00
2023-10-28T03:44:22.589Z,0.00
2023-10-28T03:46:49.496Z,0.08
2023-10-28T03:49:16.594Z,0.04
2023-10-28T03:51:43.468Z,0.02
2023-10-28T03:54:10.329Z,0.05
2023-10-28T03:56:38.797Z,0.03
2023-10-28T03:59:05.734Z,0.01
2023-10-28T04:01:32.855Z,0.01
2023-10-28T04:03:59.825Z,0.00
2023-10-28T04:06:26.687Z,0.00
2023-10-28T04:08:53.729Z,0.00
2023-10-28T04:11:20.617Z,0.00
2023-10-28T04:13:49.129Z,0.00
2023-10-28T04:16:16.076Z,0.00
2023-10-28T04:18:43.020Z,0.00
2023-10-28T04:21:10.079Z,0.00
2023-10-28T04:23:37.167Z,0.00
2023-10-28T04:26:04.463Z,0.00
2023-10-28T04:28:31.803Z,0.00
2023-10-28T04:31:00.878Z,0.00
2023-10-28T04:33:28.082Z,0.00
2023-10-28T04:35:54.961Z,0.00
2023-10-28T04:38:22.304Z,0.00
2023-10-28T04:40:50.910Z,0.05
2023-10-28T04:43:17.873Z,0.02
2023-10-28T04:45:45.095Z,0.01
2023-10-28T04:48:13.843Z,0.01
2023-10-28T04:50:40.822Z,0.00
2023-10-28T04:53:07.921Z,0.00
2023-10-28T04:55:34.886Z,0.00
2023-10-28T04:58:01.830Z,0.00
2023-10-28T05:00:28.761Z,0.00
2023-10-28T05:02:55.719Z,0.04
2023-10-28T05:05:24.157Z,0.02
2023-10-28T05:07:51.241Z,0.04
2023-10-28T05:10:18.349Z,0.06
2023-10-28T05:12:45.204Z,0.08
2023-10-28T05:15:12.544Z,0.09
2023-10-28T05:17:39.936Z,0.09
2023-10-28T05:20:08.238Z,0.10
2023-10-28T05:22:37.436Z,0.15
2023-10-28T05:25:05.299Z,4.18
2023-10-28T05:27:32.372Z,6.93
2023-10-28T05:29:59.339Z,8.41
2023-10-28T05:32:26.500Z,6.23
2023-10-28T05:34:53.889Z,3.72
2023-10-28T05:37:21.108Z,2.21
2023-10-28T05:39:50.027Z,1.27
2023-10-28T05:42:17.124Z,0.72
2023-10-28T05:44:44.439Z,0.43
2023-10-28T05:47:11.986Z,0.28
2023-10-28T05:49:39.248Z,0.19
2023-10-28T05:52:07.039Z,0.17
2023-10-28T05:54:34.296Z,0.44
2023-10-28T05:57:02.638Z,0.28
2023-10-28T05:59:29.611Z,0.31
2023-10-28T06:01:56.635Z,0.26
2023-10-28T06:04:23.772Z,0.21
2023-10-28T06:06:50.718Z,0.15
2023-10-28T06:09:17.563Z,0.11
2023-10-28T06:11:45.261Z,0.11
2023-10-28T06:14:13.580Z,0.10
2023-10-28T06:16:41.664Z,0.10
2023-10-28T06:19:09.122Z,0.08
2023-10-28T06:21:36.297Z,0.04
2023-10-28T06:24:03.631Z,0.02
2023-10-28T06:26:31.054Z,0.06
2023-10-28T06:28:59.544Z,0.17
2023-10-28T06:31:27.991Z,0.09
2023-10-28T06:33:55.061Z,0.10
2023-10-28T06:36:21.961Z,0.07
2023-10-28T06:38:48.944Z,0.13
2023-10-28T06:41:15.967Z,0.12
2023-10-28T06:43:44.082Z,0.11
2023-10-28T06:46:11.134Z,0.10
2023-10-28T06:48:40.259Z,0.10
2023-10-28T06:51:07.396Z,0.05
2023-10-28T06:53:34.376Z,0.04
2023-10-28T06:56:03.652Z,0.07
2023-10-28T06:58:30.617Z,0.08
2023-10-28T07:00:57.678Z,0.09
2023-10-28T07:03:24.816Z,0.14
2023-10-28T07:05:53.333Z,0.12
2023-10-28T07:08:21.426Z,0.11
2023-10-28T07:10:49.165Z,0.11
2023-10-28T07:13:16.130Z,0.10
2023-10-28T07:15:43.185Z,0.17
2023-10-28T07:18:10.246Z,0.14
2023-10-28T07:20:37.516Z,0.12
2023-10-28T07:23:06.144Z,0.16
2023-10-28T07:25:33.344Z,0.13
2023-10-28T07:28:00.517Z,0.53
2023-10-28T07:30:27.478Z,0.38
2023-10-28T07:32:54.689Z,0.23
2023-10-28T07:35:21.787Z,0.17
2023-10-28T07:37:48.937Z,0.18
2023-10-28T07:40:17.526Z,0.15
2023-10-28T07:42:44.511Z,0.17
2023-10-28T07:45:11.541Z,0.24
2023-10-28T07:47:38.704Z,0.22
2023-10-28T07:50:07.094Z,0.21
2023-10-28T07:52:34.202Z,0.21
2023-10-28T07:55:01.205Z,0.20
2023-10-28T07:57:29.789Z,0.17
2023-10-28T07:59:56.745Z,0.17
2023-10-28T08:02:25.023Z,0.14
2023-10-28T08:04:54.539Z,0.20
2023-10-28T08:07:21.493Z,0.17
2023-10-28T08:09:48.777Z,0.14
2023-10-28T08:12:17.523Z,0.12
2023-10-28T08:14:48.150Z,0.11
2023-10-28T08:17:15.664Z,0.11
2023-10-28T08:19:44.111Z,0.10
2023-10-28T08:22:11.272Z,0.10
2023-10-28T08:24:38.602Z,0.15
2023-10-28T08:27:06.820Z,0.19
2023-10-28T08:29:33.704Z,0.24
2023-10-28T08:32:10.616Z,0.27
2023-10-28T08:34:56.820Z,0.24
2023-10-28T08:38:35.618Z,0.18
2023-10-28T08:41:32.607Z,0.14
2023-10-28T08:44:31.512Z,0.08
2023-10-28T08:47:15.918Z,0.04
2023-10-28T08:50:22.982Z,0.17
2023-10-28T08:52:51.246Z,0.23
2023-10-28T08:55:22.706Z,0.42
2023-10-28T08:57:58.069Z,0.37
2023-10-28T09:00:30.340Z,0.38
2023-10-28T09:03:03.178Z,0.76
2023-10-28T09:05:39.841Z,0.55
2023-10-28T09:08:07.573Z,0.41
2023-10-28T09:10:34.712Z,0.81
2023-10-28T09:13:01.901Z,0.82
2023-10-28T09:15:29.001Z,0.74
2023-10-28T09:17:55.903Z,0.61
2023-10-28T09:20:25.111Z,0.42
2023-10-28T09:22:52.746Z,0.46
2023-10-28T09:25:21.197Z,0.47
2023-10-28T09:27:48.138Z,0.74
2023-10-28T09:30:15.890Z,0.53
2023-10-28T09:32:42.925Z,0.38
2023-10-28T09:35:11.247Z,0.34
2023-10-28T09:37:41.239Z,0.29
2023-10-28T09:40:09.989Z,0.20
2023-10-28T09:42:38.619Z,0.20
2023-10-28T09:45:07.584Z,0.15
2023-10-28T09:47:44.811Z,0.13
2023-10-28T09:50:13.897Z,0.11
2023-10-28T09:52:43.724Z,0.11
2023-10-28T09:55:15.026Z,0.10
2023-10-28T09:57:42.809Z,0.10
2023-10-28T10:00:13.594Z,0.10
2023-10-28T10:02:53.724Z,0.15
2023-10-28T10:05:26.862Z,0.17
2023-10-28T10:07:58.087Z,0.14
2023-10-28T10:10:25.261Z,0.28
2023-10-28T10:13:02.561Z,0.24
2023-10-28T10:15:32.579Z,0.18
2023-10-28T10:18:13.460Z,0.14
2023-10-28T10:20:44.462Z,0.12
2023-10-28T10:23:14.205Z,0.11
2023-10-28T10:25:43.939Z,0.11
2023-10-28T10:28:15.076Z,0.15
2023-10-28T10:30:44.825Z,0.13
2023-10-28T10:33:12.718Z,0.11
2023-10-28T10:35:39.944Z,0.06
2023-10-28T10:38:08.531Z,0.03
2023-10-28T10:40:50.464Z,0.03
2023-10-28T10:43:20.214Z,0.15
2023-10-28T10:45:47.831Z,0.12
2023-10-28T10:48:14.998Z,0.11
2023-10-28T10:50:42.362Z,0.11
2023-10-28T10:53:09.251Z,0.10
2023-10-28T10:55:38.098Z,0.10
2023-10-28T10:58:05.269Z,0.10
2023-10-28T11:00:32.428Z,0.10
2023-10-28T11:02:59.912Z,0.10
2023-10-28T11:05:30.234Z,0.12
2023-10-28T11:07:57.577Z,0.27
2023-10-28T11:10:24.753Z,0.16
2023-10-28T11:12:53.357Z,0.13
2023-10-28T11:15:20.509Z,0.71
2023-10-28T11:17:47.458Z,0.42
2023-10-28T11:20:18.458Z,0.22
2023-10-28T11:22:45.912Z,0.12
2023-10-28T11:25:12.969Z,0.11
2023-10-28T11:27:40.064Z,0.13
2023-10-28T11:30:10.071Z,0.07
2023-10-28T11:32:40.015Z,0.04
2023-10-28T11:35:09.977Z,0.02
2023-10-28T11:37:37.084Z,0.02
2023-10-28T11:40:05.425Z,0.01
2023-10-28T11:42:33.068Z,0.13
2023-10-28T11:45:03.534Z,0.24
2023-10-28T11:47:32.036Z,0.30
2023-10-28T11:49:59.182Z,0.21
2023-10-28T11:52:26.227Z,0.71
2023-10-28T11:54:53.222Z,0.42
2023-10-28T11:57:20.456Z,0.27
2023-10-28T11:59:47.452Z,0.19
2023-10-28T12:02:14.602Z,0.46
2023-10-28T12:04:43.078Z,0.39
2023-10-28T12:07:10.021Z,0.41
2023-10-28T12:09:37.243Z,0.26
2023-10-28T12:12:05.238Z,0.19
2023-10-28T12:14:32.348Z,0.15
2023-10-28T12:16:59.458Z,0.12
2023-10-28T12:19:26.289Z,0.12
2023-10-28T12:21:54.826Z,0.13
2023-10-28T12:24:21.879Z,0.23
2023-10-28T12:26:48.783Z,0.19
2023-10-28T12:29:15.758Z,0.20
2023-10-28T12:31:42.742Z,0.20
2023-10-28T12:34:09.766Z,0.20
2023-10-28T12:36:36.702Z,0.15
2023-10-28T12:39:05.136Z,0.16
2023-10-28T12:41:32.072Z,0.26
2023-10-28T12:43:58.990Z,0.19
2023-10-28T12:46:26.064Z,0.17
2023-10-28T12:48:53.314Z,0.14
2023-10-28T12:51:20.454Z,0.21
2023-10-28T12:53:47.609Z,0.17
2023-10-28T12:56:15.901Z,0.14
2023-10-28T12:58:43.893Z,0.22
2023-10-28T13:01:11.156Z,0.16
2023-10-28T13:03:38.286Z,0.13
2023-10-28T13:06:05.618Z,0.12
2023-10-28T13:08:32.788Z,0.11
2023-10-28T13:11:00.214Z,0.11
2023-10-28T13:13:28.576Z,0.11
2023-10-28T13:15:55.573Z,0.13
2023-10-28T13:18:22.603Z,0.17
2023-10-28T13:20:49.468Z,0.16
2023-10-28T13:23:16.636Z,0.18
2023-10-28T13:25:43.602Z,0.19
2023-10-28T13:28:10.764Z,0.30
2023-10-28T13:30:39.587Z,0.30
2023-10-28T13:33:06.680Z,0.25
2023-10-28T13:35:33.814Z,0.23
2023-10-28T13:38:01.246Z,0.26
2023-10-28T13:40:28.645Z,0.28
2023-10-28T13:42:55.740Z,0.34
2023-10-28T13:45:22.719Z,0.27
2023-10-28T13:47:51.594Z,0.21
2023-10-28T13:50:19.179Z,0.19
2023-10-28T13:52:48.201Z,0.19
2023-10-28T13:55:15.689Z,0.24
2023-10-28T13:57:42.722Z,0.32
2023-10-28T14:00:11.047Z,0.31
2023-10-28T14:02:40.623Z,0.26
2023-10-28T14:05:10.666Z,0.23
2023-10-28T14:07:37.800Z,0.22
2023-10-28T14:10:05.635Z,0.22
2023-10-28T14:12:32.564Z,0.21
2023-10-28T14:14:59.650Z,0.21
2023-10-28T14:17:26.915Z,0.20
2023-10-28T14:19:54.071Z,0.20
2023-10-28T14:22:22.717Z,0.25
2023-10-28T14:24:49.663Z,0.41
2023-10-28T14:27:16.812Z,0.36
2023-10-28T14:29:44.249Z,0.33
2023-10-28T14:32:11.384Z,2.16
2023-10-28T14:34:38.327Z,4.15
2023-10-28T14:37:05.874Z,5.04
2023-10-28T14:39:35.851Z,3.28
2023-10-28T14:42:03.092Z,1.84
2023-10-28T14:44:30.132Z,1.02
2023-10-28T14:46:57.020Z,0.62
2023-10-28T14:49:23.968Z,0.38
2023-10-28T14:51:51.354Z,0.36
2023-10-28T14:54:18.499Z,0.46
2023-10-28T14:56:46.815Z,0.72
2023-10-28T14:59:13.963Z,0.48
2023-10-28T15:01:41.069Z,0.47
2023-10-28T15:04:08.278Z,0.58
2023-10-28T15:06:35.417Z,1.08
2023-10-28T15:09:02.256Z,1.15
2023-10-28T15:11:29.326Z,2.50
2023-10-28T15:13:57.974Z,1.53
2023-10-28T15:16:24.980Z,1.05
2023-10-28T15:18:51.903Z,0.65
2023-10-28T15:21:18.908Z,1.05
2023-10-28T15:23:46.055Z,0.61
2023-10-28T15:26:15.096Z,0.39
2023-10-28T15:28:42.974Z,0.26
2023-10-28T15:31:12.215Z,0.34
2023-10-28T15:33:39.445Z,0.28
2023-10-28T15:36:14.265Z,0.23
2023-10-28T15:38:42.227Z,0.22
2023-10-28T15:41:10.457Z,0.21
2023-10-28T15:43:38.049Z,0.16
2023-10-28T15:46:07.014Z,0.13
2023-10-28T15:48:35.498Z,0.12
2023-10-28T15:51:02.683Z,0.11
2023-10-28T15:53:29.687Z,0.10
2023-10-28T15:55:56.538Z,0.26
2023-10-28T15:58:23.356Z,0.27
2023-10-28T16:00:50.308Z,0.23
2023-10-28T16:03:17.340Z,0.21
2023-10-28T16:05:45.731Z,0.17
2023-10-28T16:08:12.735Z,0.16
2023-10-28T16:10:39.917Z,0.13
2023-10-28T16:13:06.924Z,0.12
2023-10-28T16:15:33.953Z,0.15
2023-10-28T16:18:01.017Z,0.14
2023-10-28T16:20:28.129Z,0.12
2023-10-28T16:22:56.490Z,0.17
2023-10-28T16:25:23.559Z,0.24
2023-10-28T16:27:50.467Z,0.31
2023-10-28T16:30:17.531Z,0.35
2023-10-28T16:32:44.660Z,0.28
2023-10-28T16:35:11.792Z,0.20
2023-10-28T16:37:38.784Z,0.15
2023-10-28T16:40:08.246Z,0.22
2023-10-28T16:42:35.167Z,0.19
2023-10-28T16:45:02.152Z,0.46
2023-10-28T16:47:29.214Z,0.35
2023-10-28T16:49:56.392Z,0.23
2023-10-28T16:52:23.526Z,0.22
2023-10-28T16:54:50.599Z,0.16
2023-10-28T16:57:19.566Z,0.13
2023-10-28T16:59:49.416Z,0.28
2023-10-28T17:02:16.845Z,0.24
2023-10-28T17:04:43.732Z,0.24
2023-10-28T17:07:10.657Z,0.60
2023-10-28T17:09:37.713Z,0.42
2023-10-28T17:12:05.446Z,0.32
2023-10-28T17:14:34.069Z,0.26
2023-10-28T17:17:01.239Z,0.23
2023-10-28T17:19:28.284Z,0.17
2023-10-28T17:21:55.361Z,0.14
2023-10-28T17:24:22.560Z,0.66
2023-10-28T17:26:49.573Z,0.56
2023-10-28T17:29:16.656Z,0.87
2023-10-28T17:31:45.115Z,0.51
2023-10-28T17:34:12.164Z,0.41
2023-10-28T17:36:41.661Z,0.35
2023-10-28T17:39:08.694Z,0.56
2023-10-28T17:41:35.686Z,0.52
2023-10-28T17:44:03.502Z,0.37
2023-10-28T17:46:33.146Z,0.42
2023-10-28T17:49:01.588Z,0.28
2023-10-28T17:51:28.524Z,0.24
2023-10-28T17:53:55.488Z,0.76
2023-10-28T17:56:22.751Z,0.55
2023-10-28T17:58:49.800Z,0.42
2023-10-28T18:01:18.942Z,0.31
2023-10-28T18:03:46.261Z,0.28
2023-10-28T18:06:15.255Z,0.34
2023-10-28T18:08:42.260Z,0.33
2023-10-28T18:11:09.705Z,0.27
2023-10-28T18:13:36.662Z,0.24
2023-10-28T18:16:04.067Z,0.17
2023-10-28T18:18:31.022Z,0.14
2023-10-28T18:20:57.906Z,0.12
2023-10-28T18:23:26.310Z,0.38
2023-10-28T18:25:53.510Z,0.49
2023-10-28T18:28:20.534Z,0.72
2023-10-28T18:30:47.616Z,0.43
2023-10-28T18:33:14.711Z,0.28
2023-10-28T18:35:41.748Z,0.24
2023-10-28T18:38:08.862Z,0.22
2023-10-28T18:40:38.857Z,0.16
2023-10-28T18:43:06.172Z,0.16
2023-10-28T18:45:33.393Z,0.18
2023-10-28T18:48:00.403Z,0.17
2023-10-28T18:50:27.701Z,0.20
2023-10-28T18:52:54.684Z,0.19
2023-10-28T18:55:21.902Z,0.24
2023-10-28T18:57:50.508Z,0.20
2023-10-28T19:00:18.387Z,0.91
2023-10-28T19:02:45.608Z,0.89
2023-10-28T19:05:12.867Z,0.57
2023-10-28T19:07:40.335Z,0.41
2023-10-28T19:10:08.218Z,0.31
2023-10-28T19:12:35.848Z,0.26
2023-10-28T19:15:04.873Z,0.23
2023-10-28T19:17:31.957Z,0.17
2023-10-28T19:19:59.004Z,0.18
2023-10-28T19:22:26.170Z,0.19
2023-10-28T19:24:53.286Z,0.20
2023-10-28T19:27:20.328Z,0.20
2023-10-28T19:29:47.686Z,0.25
2023-10-28T19:32:16.321Z,0.30
2023-10-28T19:34:43.347Z,0.25
2023-10-28T19:37:10.287Z,0.22
2023-10-28T19:39:37.504Z,0.21
2023-10-28T19:42:05.626Z,0.20
2023-10-28T19:44:32.888Z,0.20
2023-10-28T19:46:59.890Z,0.20
2023-10-28T19:49:29.508Z,0.41
2023-10-28T19:51:56.590Z,0.28
2023-10-28T19:54:23.630Z,0.27
2023-10-28T19:56:51.454Z,0.27
2023-10-28T19:59:18.556Z,0.43
2023-10-28T20:01:45.734Z,0.32
2023-10-28T20:04:12.714Z,0.27
2023-10-28T20:06:41.287Z,0.28
2023-10-28T20:09:08.360Z,0.64
2023-10-28T20:11:35.789Z,0.54
2023-10-28T20:14:02.767Z,0.41
2023-10-28T20:16:29.729Z,0.32
2023-10-28T20:18:56.820Z,0.31
2023-10-28T20:21:23.701Z,0.73
2023-10-28T20:23:52.282Z,0.48
2023-10-28T20:26:19.467Z,0.35
2023-10-28T20:28:46.391Z,0.28
2023-10-28T20:31:13.786Z,0.51
2023-10-28T20:33:40.998Z,0.44
2023-10-28T20:36:08.422Z,0.39
2023-10-28T20:38:36.723Z,0.35
2023-10-28T20:41:05.462Z,0.47
2023-10-28T20:43:35.412Z,0.39
2023-10-28T20:46:05.869Z,0.35
2023-10-28T20:48:32.851Z,0.33
2023-10-28T20:50:59.991Z,0.36
2023-10-28T20:53:27.217Z,0.40
2023-10-28T20:55:54.196Z,0.41
2023-10-28T20:58:22.626Z,0.45
2023-10-28T21:00:50.680Z,0.38
2023-10-28T21:03:17.762Z,0.39
2023-10-28T21:05:44.905Z,0.30
2023-10-28T21:08:11.980Z,0.41
2023-10-28T21:10:39.175Z,0.79
2023-10-28T21:13:06.591Z,1.00
2023-10-28T21:15:35.115Z,0.67
2023-10-28T21:18:02.094Z,0.60
2023-10-28T21:20:29.278Z,0.45
2023-10-28T21:22:56.246Z,0.41
2023-10-28T21:25:23.441Z,0.36
2023-10-28T21:27:50.502Z,0.30
2023-10-28T21:30:18.244Z,0.28
2023-10-28T21:32:46.867Z,0.24
2023-10-28T21:35:13.979Z,0.22
2023-10-28T21:37:41.045Z,0.44
2023-10-28T21:40:09.718Z,0.33
2023-10-28T21:42:36.979Z,0.28
2023-10-28T21:45:04.896Z,0.36
2023-10-28T21:47:34.284Z,0.28
2023-10-28T21:50:03.389Z,0.30
2023-10-28T21:52:30.332Z,0.46
2023-10-28T21:54:57.260Z,0.38
2023-10-28T21:57:24.177Z,0.40
2023-10-28T21:59:51.216Z,0.51
2023-10-28T22:02:18.333Z,0.86
2023-10-28T22:04:46.003Z,0.58
2023-10-28T22:07:14.502Z,0.45
2023-10-28T22:09:41.505Z,0.33
2023-10-28T22:12:08.971Z,0.43
2023-10-28T22:14:35.917Z,0.37
2023-10-28T22:17:03.610Z,0.38
2023-10-28T22:19:30.599Z,0.42
2023-10-28T22:21:57.512Z,0.36
2023-10-28T22:24:26.162Z,0.38
2023-10-28T22:26:53.144Z,0.35
2023-10-28T22:29:20.088Z,0.33
2023-10-28T22:31:47.405Z,0.34
2023-10-28T22:34:14.254Z,0.28
2023-10-28T22:36:41.128Z,0.34
2023-10-28T22:39:08.103Z,0.32
2023-10-28T22:41:36.434Z,0.27
2023-10-28T22:44:03.676Z,0.27
2023-10-28T22:46:31.077Z,0.24
2023-10-28T22:48:57.994Z,0.53
2023-10-28T22:51:25.022Z,0.42
2023-10-28T22:53:52.050Z,0.50
2023-10-28T22:56:19.035Z,0.57
2023-10-28T22:58:47.535Z,0.42
2023-10-28T23:01:14.508Z,0.36
2023-10-28T23:03:41.489Z,0.39
2023-10-28T23:06:08.440Z,0.35
2023-10-28T23:08:35.281Z,0.49
2023-10-28T23:11:02.238Z,0.35
2023-10-28T23:13:29.116Z,0.80
2023-10-28T23:15:57.434Z,0.57
2023-10-28T23:18:24.414Z,0.47
2023-10-28T23:20:51.413Z,0.39
2023-10-28T23:23:18.441Z,0.30
2023-10-28T23:25:45.292Z,0.30
2023-10-28T23:28:12.228Z,0.35
2023-10-28T23:30:39.186Z,0.42
2023-10-28T23:33:07.768Z,0.48
2023-10-28T23:35:35.276Z,0.45
2023-10-28T23:38:02.464Z,0.41
2023-10-28T23:40:29.426Z,0.55
2023-10-28T23:42:58.503Z,0.43
2023-10-28T23:45:25.924Z,0.38
2023-10-28T23:47:52.889Z,0.29
2023-10-28T23:50:21.823Z,0.32
2023-10-28T23:52:49.013Z,0.35
2023-10-28T23:55:16.000Z,0.51
2023-10-28T23:57:42.892Z,0.63
